Time;durP1;ratioP1;P1;durP2;ratioP2;P2;SDS_P1;SDS_P2;PMS_P1;PMS_P2;Temp;Humidity;BMP_temperature;BMP_pressure;BME280_temperature;BME280_humidity;BME280_pressure;Samples;Min_cycle;Max_cycle;Signal;HPM_P1;HPM_P2
2021/04/02 00:00:29;;;;;;;33.97;22.50;;;11.30;99.90;;;;;;5019860;28;20863;-66
2021/04/02 00:02:58;;;;;;;38.07;23.20;;;11.20;99.90;;;;;;5040184;28;20420;-68
2021/04/02 00:05:26;;;;;;;31.90;21.63;;;11.20;99.90;;;;;;5020585;28;20480;-65
2021/04/02 00:07:54;;;;;;;32.27;22.30;;;11.10;99.90;;;;;;5018642;28;20416;-65
2021/04/02 00:10:24;;;;;;;30.87;22.30;;;11.00;99.90;;;;;;5020227;28;20427;-65
2021/04/02 00:12:51;;;;;;;30.70;19.70;;;11.00;99.90;;;;;;5039161;28;20959;-68
2021/04/02 00:15:22;;;;;;;33.70;20.47;;;10.90;99.90;;;;;;5021232;28;20405;-66
2021/04/02 00:17:52;;;;;;;36.63;21.67;;;10.80;99.90;;;;;;5040615;28;20505;-67
2021/04/02 00:20:20;;;;;;;29.50;18.70;;;10.80;99.90;;;;;;5040775;28;20561;-65
2021/04/02 00:22:48;;;;;;;33.63;18.97;;;10.70;99.90;;;;;;5041039;28;20418;-68
2021/04/02 00:25:16;;;;;;;33.63;20.40;;;10.70;99.90;;;;;;5040622;28;20426;-67
2021/04/02 00:27:43;;;;;;;30.67;20.37;;;10.70;99.90;;;;;;5040901;28;20416;-67
2021/04/02 00:30:15;;;;;;;28.43;19.63;;;10.60;99.90;;;;;;5006265;28;20414;-69
2021/04/02 00:33:07;;;;;;;35.10;21.87;;;10.60;99.90;;;;;;5038001;28;20457;-66
2021/04/02 00:35:38;;;;;;;28.63;19.27;;;10.60;99.90;;;;;;5040211;28;20485;-68
2021/04/02 00:38:06;;;;;;;26.80;19.00;;;10.60;99.90;;;;;;5056125;23;21813;-68
2021/04/02 00:40:37;;;;;;;25.13;18.30;;;10.50;99.90;;;;;;5038357;28;20445;-69
2021/04/02 00:43:05;;;;;;;29.00;20.13;;;10.50;99.90;;;;;;5021819;28;20409;-69
2021/04/02 00:45:32;;;;;;;31.33;19.40;;;10.40;99.90;;;;;;5037574;28;20438;-71
2021/04/02 00:48:00;;;;;;;27.27;18.10;;;10.30;99.90;;;;;;5056223;28;20416;-72
2021/04/02 00:50:39;;;;;;;29.00;19.37;;;10.40;99.90;;;;;;5038346;28;20455;-71
2021/04/02 00:53:07;;;;;;;25.73;17.47;;;10.40;99.90;;;;;;5055829;28;20419;-68
2021/04/02 00:55:35;;;;;;;27.20;18.27;;;10.50;99.90;;;;;;5056112;28;20422;-72
2021/04/02 00:58:04;;;;;;;28.80;18.10;;;10.50;99.90;;;;;;5056252;28;20469;-68
2021/04/02 01:00:32;;;;;;;29.80;18.90;;;10.50;99.90;;;;;;5037465;28;20430;-69
2021/04/02 01:02:59;;;;;;;32.77;20.10;;;10.50;99.90;;;;;;5056591;28;20401;-69
2021/04/02 01:05:31;;;;;;;30.20;17.67;;;10.40;99.90;;;;;;5040411;28;20556;-72
2021/04/02 01:08:01;;;;;;;27.33;18.23;;;10.40;99.90;;;;;;5039414;28;20430;-69
2021/04/02 01:10:31;;;;;;;30.67;18.07;;;10.30;99.90;;;;;;5038211;28;20437;-69
2021/04/02 01:13:00;;;;;;;25.53;17.50;;;10.20;99.90;;;;;;5039322;28;20465;-68
2021/04/02 01:15:33;;;;;;;33.60;17.60;;;10.20;99.90;;;;;;5055741;28;20438;-69
2021/04/02 01:18:10;;;;;;;27.10;17.30;;;10.20;99.90;;;;;;5038623;28;20440;-71
2021/04/02 01:20:40;;;;;;;29.43;17.20;;;10.30;99.90;;;;;;5039658;28;20511;-71
2021/04/02 01:23:11;;;;;;;26.67;19.03;;;10.40;99.90;;;;;;5057114;28;20401;-69
2021/04/02 01:25:50;;;;;;;28.90;17.20;;;10.50;99.90;;;;;;5040210;28;20459;-72
2021/04/02 01:28:27;;;;;;;24.80;17.33;;;10.60;99.90;;;;;;5040012;28;20413;-71
2021/04/02 01:30:58;;;;;;;23.20;17.00;;;10.60;99.90;;;;;;5056311;28;20480;-72
2021/04/02 01:33:27;;;;;;;24.50;17.03;;;10.70;99.90;;;;;;5057253;28;20420;-69
2021/04/02 01:35:56;;;;;;;28.13;18.40;;;10.70;99.90;;;;;;5039918;28;20972;-73
2021/04/02 01:38:28;;;;;;;24.20;16.53;;;10.80;99.90;;;;;;5056055;28;20498;-69
2021/04/02 01:41:02;;;;;;;24.20;15.87;;;10.70;99.90;;;;;;5040291;28;20401;-73
2021/04/02 01:43:34;;;;;;;27.80;17.53;;;10.70;99.90;;;;;;5039640;28;20442;-72
2021/04/02 01:46:06;;;;;;;27.40;17.77;;;10.80;99.90;;;;;;5034305;28;20458;-70
2021/04/02 01:48:36;;;;;;;27.43;16.63;;;10.80;99.90;;;;;;5034887;28;20414;-69
2021/04/02 01:51:06;;;;;;;28.07;17.80;;;10.80;99.90;;;;;;5033988;28;20463;-69
2021/04/02 01:53:37;;;;;;;28.97;19.43;;;10.80;99.90;;;;;;5033833;28;20921;-68
2021/04/02 01:56:07;;;;;;;27.90;17.17;;;10.80;99.90;;;;;;5033894;28;20428;-71
2021/04/02 01:58:38;;;;;;;26.70;18.03;;;10.80;99.90;;;;;;5017077;28;20494;-73
2021/04/02 02:01:34;;;;;;;24.30;16.53;;;10.70;99.90;;;;;;5025090;28;20474;-69
2021/04/02 02:04:06;;;;;;;24.90;17.27;;;10.70;99.90;;;;;;5037212;28;20438;-69
2021/04/02 02:06:38;;;;;;;24.23;16.40;;;10.60;99.90;;;;;;5036887;28;20413;-72
2021/04/02 02:09:18;;;;;;;24.53;16.60;;;10.60;99.90;;;;;;5036816;28;20446;-69
2021/04/02 02:12:15;;;;;;;25.40;15.40;;;10.50;99.90;;;;;;5036867;28;20430;-69
2021/04/02 02:14:51;;;;;;;22.30;14.13;;;10.30;99.90;;;;;;5037001;28;20953;-70
2021/04/02 02:17:31;;;;;;;21.93;14.70;;;10.20;99.90;;;;;;5036297;28;20453;-69
2021/04/02 02:20:02;;;;;;;21.40;14.57;;;10.20;99.90;;;;;;5036790;28;20969;-70
2021/04/02 02:22:30;;;;;;;16.50;12.60;;;10.00;99.90;;;;;;5020462;28;20409;-69
2021/04/02 02:25:07;;;;;;;17.60;12.93;;;10.00;99.90;;;;;;5036839;28;20454;-70
2021/04/02 02:27:37;;;;;;;18.13;12.30;;;9.90;99.90;;;;;;5036603;28;20733;-69
2021/04/02 02:30:09;;;;;;;18.23;12.53;;;9.90;99.90;;;;;;5020477;28;20760;-69
2021/04/02 02:32:39;;;;;;;14.40;10.20;;;9.90;99.90;;;;;;5053644;28;20448;-69
2021/04/02 02:35:09;;;;;;;12.70;9.77;;;9.80;99.90;;;;;;5020401;28;20496;-68
2021/04/02 02:37:41;;;;;;;16.70;9.17;;;9.60;99.90;;;;;;5054263;28;20947;-69
2021/04/02 02:40:12;;;;;;;12.80;8.20;;;9.60;99.90;;;;;;5033688;28;20966;-69
2021/04/02 02:42:41;;;;;;;13.83;10.37;;;9.50;99.90;;;;;;5033386;28;20435;-72
2021/04/02 02:45:12;;;;;;;13.50;9.20;;;9.40;99.90;;;;;;5032745;28;20967;-70
2021/04/02 02:47:41;;;;;;;14.50;8.37;;;9.40;99.90;;;;;;5032844;28;20460;-69
2021/04/02 02:50:13;;;;;;;12.70;8.40;;;9.30;99.90;;;;;;5033323;28;20426;-69
2021/04/02 02:52:42;;;;;;;9.90;7.63;;;9.20;99.90;;;;;;5033358;28;20450;-71
2021/04/02 02:55:11;;;;;;;10.17;7.73;;;9.20;99.90;;;;;;5032955;28;20427;-69
2021/04/02 02:57:40;;;;;;;8.80;6.57;;;9.10;99.90;;;;;;5032979;28;20436;-72
2021/04/02 03:00:12;;;;;;;14.53;8.47;;;9.30;99.90;;;;;;5032526;28;20961;-71
2021/04/02 03:02:43;;;;;;;10.50;7.57;;;9.20;99.90;;;;;;5032944;28;20550;-71
2021/04/02 03:05:15;;;;;;;10.13;7.10;;;9.10;99.90;;;;;;5033092;28;20480;-71
2021/04/02 03:07:45;;;;;;;9.67;7.63;;;9.10;99.90;;;;;;5034557;28;20478;-69
2021/04/02 03:10:15;;;;;;;10.80;8.40;;;9.00;99.90;;;;;;5033161;28;20466;-69
2021/04/02 03:12:48;;;;;;;10.43;7.77;;;8.90;99.90;;;;;;5032912;28;20434;-69
2021/04/02 03:15:19;;;;;;;9.07;8.03;;;8.80;99.90;;;;;;5032236;28;20962;-70
2021/04/02 03:17:52;;;;;;;8.97;6.83;;;8.70;99.90;;;;;;5032829;28;20949;-71
2021/04/02 03:20:22;;;;;;;11.07;8.07;;;8.80;99.90;;;;;;5049948;22;20925;-64
2021/04/02 03:22:51;;;;;;;11.70;7.50;;;8.70;99.90;;;;;;5042736;28;20869;-64
2021/04/02 03:25:23;;;;;;;9.70;7.97;;;8.60;99.90;;;;;;5041724;28;20433;-64
2021/04/02 03:27:57;;;;;;;11.17;7.93;;;8.50;99.90;;;;;;5042609;28;20937;-66
2021/04/02 03:30:34;;;;;;;8.40;7.40;;;8.40;99.90;;;;;;5034740;28;20441;-64
2021/04/02 03:33:11;;;;;;;10.83;8.30;;;8.50;99.90;;;;;;5017058;28;20752;-64
2021/04/02 03:38:36;;;;;;;8.93;7.90;;;8.30;99.90;;;;;;5017394;28;20553;-64
2021/04/02 03:41:09;;;;;;;12.23;8.00;;;8.20;99.90;;;;;;5018104;28;20459;-63
2021/04/02 03:43:42;;;;;;;11.17;8.17;;;8.20;99.90;;;;;;5017831;28;20521;-64
2021/04/02 03:46:10;;;;;;;9.57;7.43;;;8.20;99.90;;;;;;5017012;28;20486;-66
2021/04/02 03:48:44;;;;;;;11.47;8.40;;;8.20;99.90;;;;;;5035925;28;20466;-64
2021/04/02 03:51:19;;;;;;;10.40;7.97;;;8.10;99.90;;;;;;5036143;28;20448;-63
2021/04/02 03:53:53;;;;;;;11.97;7.90;;;8.20;99.90;;;;;;5018059;28;20917;-63
2021/04/02 03:56:27;;;;;;;9.93;7.60;;;8.10;99.90;;;;;;5019013;28;20972;-63
2021/04/02 03:58:56;;;;;;;9.37;7.30;;;8.10;99.90;;;;;;5036585;28;20903;-63
2021/04/02 04:01:32;;;;;;;12.13;7.37;;;8.10;99.90;;;;;;5017879;28;21075;-63
2021/04/02 04:04:04;;;;;;;9.30;6.93;;;8.10;99.90;;;;;;5020196;28;20834;-66
2021/04/02 04:06:37;;;;;;;8.27;6.73;;;8.20;99.90;;;;;;5019623;28;20437;-64
2021/04/02 04:09:12;;;;;;;7.93;7.13;;;8.10;99.90;;;;;;5018551;28;20433;-63
2021/04/02 04:14:48;;;;;;;10.10;7.43;;;7.80;99.90;;;;;;5041056;28;20439;-63
2021/04/02 04:17:22;;;;;;;10.40;7.57;;;7.80;99.90;;;;;;5022437;28;20487;-64
2021/04/02 04:19:57;;;;;;;8.70;6.70;;;7.80;99.90;;;;;;5024611;28;20930;-65
2021/04/02 04:22:29;;;;;;;10.13;6.97;;;7.70;99.90;;;;;;5004342;28;20484;-64
2021/04/02 04:25:02;;;;;;;8.40;6.60;;;7.70;99.90;;;;;;5003395;28;20444;-64
2021/04/02 04:27:32;;;;;;;10.53;6.70;;;7.60;99.90;;;;;;5004489;28;20461;-64
2021/04/02 04:30:00;;;;;;;7.90;6.80;;;7.50;99.90;;;;;;5020272;28;20435;-65
2021/04/02 04:32:29;;;;;;;8.10;6.50;;;7.40;99.90;;;;;;5039829;28;20472;-64
2021/04/02 04:35:00;;;;;;;7.83;6.63;;;7.50;99.90;;;;;;5037890;28;20518;-64
2021/04/02 04:37:28;;;;;;;7.37;6.03;;;7.40;99.90;;;;;;5020262;28;20449;-64
2021/04/02 04:39:57;;;;;;;10.90;6.10;;;7.50;99.90;;;;;;5039046;28;21012;-63
2021/04/02 04:42:25;;;;;;;7.40;5.80;;;7.40;99.90;;;;;;5038149;28;20444;-64
2021/04/02 04:44:56;;;;;;;6.73;5.97;;;7.40;99.90;;;;;;5038788;28;20496;-63
2021/04/02 04:47:48;;;;;;;9.57;6.10;;;7.40;99.90;;;;;;5037232;28;20476;-64
2021/04/02 04:50:18;;;;;;;8.40;6.00;;;7.30;99.90;;;;;;5037693;28;20439;-63
2021/04/02 04:52:51;;;;;;;6.70;5.73;;;7.20;99.90;;;;;;5038328;28;20440;-63
2021/04/02 04:55:20;;;;;;;5.30;4.80;;;7.10;99.90;;;;;;5037506;28;20439;-63
2021/04/02 04:57:50;;;;;;;8.63;5.67;;;7.00;99.90;;;;;;5038142;28;20526;-64
2021/04/02 05:00:20;;;;;;;5.63;4.60;;;6.90;99.90;;;;;;5018569;28;20443;-64
2021/04/02 05:02:48;;;;;;;6.00;4.80;;;7.00;99.90;;;;;;5037703;28;20806;-63
2021/04/02 05:05:22;;;;;;;5.33;4.70;;;7.00;99.90;;;;;;5019949;28;20458;-66
2021/04/02 05:07:52;;;;;;;5.53;5.03;;;7.00;99.90;;;;;;5050097;28;20451;-64
2021/04/02 05:10:21;;;;;;;5.53;4.63;;;7.10;99.90;;;;;;5042283;28;20435;-64
2021/04/02 05:12:50;;;;;;;5.70;5.10;;;7.10;99.90;;;;;;5037658;28;20759;-66
2021/04/02 05:15:20;;;;;;;4.83;4.20;;;7.10;99.90;;;;;;5035846;28;20498;-65
2021/04/02 05:17:52;;;;;;;8.57;4.50;;;7.10;99.90;;;;;;5037143;28;20427;-66
2021/04/02 05:20:27;;;;;;;5.93;5.00;;;7.10;99.90;;;;;;5039269;28;20846;-63
2021/04/02 05:22:55;;;;;;;5.30;4.80;;;7.00;99.90;;;;;;5040332;28;20427;-64
2021/04/02 05:25:22;;;;;;;4.83;3.70;;;7.10;99.90;;;;;;5038008;28;20599;-64
2021/04/02 05:27:52;;;;;;;6.03;4.30;;;7.10;99.90;;;;;;5056425;28;20453;-64
2021/04/02 05:33:14;;;;;;;5.13;4.10;;;7.30;99.90;;;;;;5056610;28;20527;-66
2021/04/02 05:35:43;;;;;;;8.17;3.80;;;7.40;99.90;;;;;;5056536;28;20438;-64
2021/04/02 05:38:10;;;;;;;7.50;4.57;;;7.50;99.90;;;;;;5038425;28;20432;-63
2021/04/02 05:41:06;;;;;;;4.23;3.83;;;7.50;99.90;;;;;;5056351;28;20431;-67
2021/04/02 05:43:37;;;;;;;4.17;3.80;;;7.60;99.90;;;;;;5056705;28;20508;-66
2021/04/02 05:46:05;;;;;;;5.57;4.07;;;7.80;99.90;;;;;;5057314;28;20588;-64
2021/04/02 05:48:33;;;;;;;4.30;3.60;;;8.00;99.90;;;;;;5057686;28;20564;-64
2021/04/02 05:51:01;;;;;;;4.30;3.90;;;8.20;99.90;;;;;;5056632;28;20470;-64
2021/04/02 05:53:30;;;;;;;4.63;3.80;;;8.80;99.90;;;;;;5056272;28;20445;-64
2021/04/02 05:56:02;;;;;;;4.90;4.07;;;9.30;99.90;;;;;;5056961;28;20793;-64
2021/04/02 05:58:30;;;;;;;4.10;3.67;;;9.90;98.40;;;;;;5057628;28;20479;-63
2021/04/02 06:01:23;;;;;;;4.57;4.17;;;10.40;96.40;;;;;;5056957;28;20509;-66
2021/04/02 06:03:52;;;;;;;4.67;4.00;;;11.10;94.40;;;;;;5057620;28;20547;-63
2021/04/02 06:06:21;;;;;;;4.27;3.80;;;11.70;92.80;;;;;;5057581;28;20570;-65
2021/04/02 06:08:48;;;;;;;3.97;3.57;;;12.20;91.60;;;;;;5056924;28;20946;-63
2021/04/02 06:11:17;;;;;;;4.27;3.40;;;12.40;90.90;;;;;;5057797;28;20488;-64
2021/04/02 06:13:44;;;;;;;5.23;3.40;;;12.90;90.10;;;;;;5057355;28;20436;-64
2021/04/02 06:16:11;;;;;;;3.87;3.50;;;13.20;87.70;;;;;;5056800;28;20466;-64
2021/04/02 06:18:40;;;;;;;4.60;4.20;;;13.20;86.50;;;;;;5057968;28;20445;-65
2021/04/02 06:21:09;;;;;;;6.80;4.50;;;13.50;84.50;;;;;;5056967;28;20807;-65
2021/04/02 06:23:38;;;;;;;5.50;4.07;;;14.20;83.10;;;;;;5056630;28;20425;-69
2021/04/02 06:26:10;;;;;;;4.30;3.43;;;14.10;79.80;;;;;;5056624;28;20415;-65
2021/04/02 06:28:39;;;;;;;3.80;3.50;;;14.20;80.00;;;;;;5056456;28;20433;-65
2021/04/02 06:31:08;;;;;;;4.27;3.57;;;14.00;79.00;;;;;;5055619;28;20500;-65
2021/04/02 06:33:38;;;;;;;5.03;3.97;;;13.90;79.10;;;;;;5057391;28;20441;-65
2021/04/02 06:39:07;;;;;;;4.67;3.50;;;13.40;79.40;;;;;;5041447;28;20469;-63
2021/04/02 06:41:36;;;;;;;3.90;3.60;;;13.60;79.80;;;;;;5059154;28;20418;-64
2021/04/02 06:44:05;;;;;;;5.00;4.50;;;14.10;77.90;;;;;;5058230;28;20428;-64
2021/04/02 06:46:34;;;;;;;5.20;3.87;;;14.40;75.30;;;;;;5059753;28;20478;-64
2021/04/02 06:49:10;;;;;;;4.50;3.20;;;14.10;73.80;;;;;;5063057;28;20435;-65
2021/04/02 06:51:42;;;;;;;4.90;4.40;;;13.30;78.30;;;;;;5063133;28;20492;-64
2021/04/02 06:54:29;;;;;;;4.47;4.07;;;13.60;77.90;;;;;;5063811;28;20426;-64
2021/04/02 06:57:01;;;;;;;4.27;3.73;;;13.40;76.80;;;;;;5064687;28;20437;-64
2021/04/02 06:59:32;;;;;;;4.63;3.83;;;14.00;78.80;;;;;;5062593;28;20492;-64
2021/04/02 07:02:05;;;;;;;4.77;4.37;;;14.20;76.30;;;;;;5060152;28;20471;-64
2021/04/02 07:04:33;;;;;;;5.23;4.13;;;14.70;74.20;;;;;;5060172;28;20458;-64
2021/04/02 07:07:03;;;;;;;5.83;3.73;;;13.40;75.00;;;;;;5041558;28;20434;-64
2021/04/02 07:09:40;;;;;;;7.47;3.60;;;13.70;77.20;;;;;;5057904;28;20836;-65
2021/04/02 07:12:12;;;;;;;4.77;3.43;;;14.50;75.40;;;;;;5038783;28;20435;-65
2021/04/02 07:14:41;;;;;;;5.23;4.07;;;14.90;72.60;;;;;;5056689;28;20484;-65
2021/04/02 07:17:09;;;;;;;8.17;6.63;;;14.10;72.90;;;;;;5056602;28;20462;-65
2021/04/02 07:19:38;;;;;;;6.03;4.80;;;15.50;71.50;;;;;;5059046;28;20968;-65
2021/04/02 07:22:08;;;;;;;5.50;3.97;;;16.60;68.70;;;;;;5067409;28;20533;-64
2021/04/02 07:24:37;;;;;;;7.97;6.40;;;16.30;65.30;;;;;;5059456;28;20528;-66
2021/04/02 07:27:05;;;;;;;10.73;6.20;;;17.20;65.40;;;;;;5058497;28;20435;-65
2021/04/02 07:29:35;;;;;;;4.60;3.50;;;17.00;63.50;;;;;;5040142;28;20438;-65
2021/04/02 07:32:05;;;;;;;4.20;3.80;;;16.80;61.00;;;;;;5057628;28;20543;-67
2021/04/02 07:34:33;;;;;;;5.50;4.47;;;16.40;64.00;;;;;;5040441;28;20438;-66
2021/04/02 07:37:02;;;;;;;4.90;4.40;;;15.80;65.70;;;;;;5058420;28;20442;-64
2021/04/02 07:39:32;;;;;;;4.73;3.70;;;16.50;64.70;;;;;;5040241;28;20813;-65
2021/04/02 07:42:01;;;;;;;4.70;4.10;;;17.30;61.30;;;;;;5057772;28;20519;-65
2021/04/02 07:44:36;;;;;;;4.40;3.70;;;18.20;60.40;;;;;;5059544;28;20431;-66
2021/04/02 07:47:10;;;;;;;4.80;3.50;;;17.90;57.70;;;;;;5039809;28;20549;-65
2021/04/02 07:49:42;;;;;;;4.10;3.70;;;19.30;58.60;;;;;;5041950;28;20445;-67
2021/04/02 07:52:10;;;;;;;4.70;4.20;;;18.70;53.90;;;;;;5018336;28;20428;-65
2021/04/02 07:54:41;;;;;;;7.00;4.77;;;17.40;55.00;;;;;;5037113;28;20436;-68
2021/04/02 07:57:16;;;;;;;5.17;4.00;;;17.00;57.60;;;;;;5035818;28;20449;-65
2021/04/02 07:59:46;;;;;;;4.57;4.13;;;18.50;55.20;;;;;;5036802;28;20549;-65
2021/04/02 08:02:15;;;;;;;4.37;3.90;;;17.60;53.90;;;;;;5021427;28;20466;-65
2021/04/02 08:04:49;;;;;;;6.40;3.77;;;17.10;55.60;;;;;;5038465;28;20426;-65
2021/04/02 08:07:19;;;;;;;7.23;4.50;;;17.20;59.40;;;;;;5057160;28;20491;-65
2021/04/02 08:09:48;;;;;;;5.67;4.60;;;16.00;58.50;;;;;;5055376;28;20817;-65
2021/04/02 08:12:36;;;;;;;5.30;3.63;;;14.20;62.70;;;;;;5055359;28;20434;-63
2021/04/02 08:15:08;;;;;;;3.70;3.20;;;15.30;66.20;;;;;;5054883;28;20427;-64
2021/04/02 08:17:36;;;;;;;4.30;3.70;;;15.40;61.00;;;;;;5054810;28;20477;-65
2021/04/02 08:20:07;;;;;;;5.80;4.80;;;14.90;65.50;;;;;;5054483;28;20482;-64
2021/04/02 08:22:36;;;;;;;4.40;3.23;;;13.70;65.90;;;;;;5054750;28;20454;-64
2021/04/02 08:25:08;;;;;;;4.90;4.10;;;12.80;70.60;;;;;;5037187;28;20848;-65
2021/04/02 08:27:36;;;;;;;6.03;3.57;;;12.50;72.00;;;;;;5054713;28;20480;-64
2021/04/02 08:30:12;;;;;;;4.37;3.70;;;12.30;75.30;;;;;;5055158;28;20534;-65
2021/04/02 08:32:43;;;;;;;5.23;4.10;;;12.00;76.60;;;;;;5055418;28;20486;-64
2021/04/02 08:35:13;;;;;;;4.27;3.67;;;11.70;77.50;;;;;;5056157;28;20453;-64
2021/04/02 08:37:56;;;;;;;4.20;3.47;;;11.80;79.80;;;;;;5037869;28;20456;-65
2021/04/02 08:40:24;;;;;;;13.80;9.60;;;11.50;79.50;;;;;;5055669;28;20468;-65
2021/04/02 08:43:00;;;;;;;4.87;3.67;;;11.50;81.70;;;;;;5054945;28;20514;-64
2021/04/02 08:45:33;;;;;;;7.80;5.50;;;11.20;82.20;;;;;;5053792;28;20476;-65
2021/04/02 08:48:01;;;;;;;6.13;3.80;;;11.20;83.00;;;;;;5054592;28;20455;-65
2021/04/02 08:50:28;;;;;;;6.67;5.87;;;10.90;83.80;;;;;;5054015;28;20500;-65
2021/04/02 08:53:09;;;;;;;5.30;4.10;;;10.90;84.70;;;;;;5054736;28;20423;-65
2021/04/02 08:55:43;;;;;;;5.10;3.60;;;11.00;85.10;;;;;;5054966;28;20411;-65
2021/04/02 08:58:20;;;;;;;4.53;3.73;;;10.50;86.00;;;;;;5036163;28;20423;-63
2021/04/02 09:00:47;;;;;;;5.37;3.50;;;10.30;86.90;;;;;;5051436;28;20482;-63
2021/04/02 09:03:15;;;;;;;6.50;4.40;;;10.40;88.00;;;;;;5039191;28;20400;-63
2021/04/02 09:05:42;;;;;;;4.90;4.20;;;10.10;89.10;;;;;;5038503;28;20437;-64
2021/04/02 09:08:11;;;;;;;6.20;5.00;;;10.40;89.90;;;;;;5021417;28;20832;-65
2021/04/02 09:10:40;;;;;;;5.53;5.00;;;10.90;89.80;;;;;;5038238;28;20431;-64
2021/04/02 09:13:07;;;;;;;6.27;5.50;;;11.00;86.00;;;;;;5038021;28;20764;-63
2021/04/02 09:15:35;;;;;;;8.80;5.53;;;10.90;86.90;;;;;;5037842;28;20470;-63
2021/04/02 09:18:14;;;;;;;7.10;5.30;;;10.70;87.90;;;;;;5038363;28;20405;-63
2021/04/02 09:20:42;;;;;;;6.87;5.00;;;10.40;88.20;;;;;;5042039;28;20460;-65
2021/04/02 09:23:10;;;;;;;6.53;5.00;;;10.80;88.60;;;;;;5058811;28;20421;-63
2021/04/02 09:25:39;;;;;;;6.77;4.97;;;10.80;88.80;;;;;;5063901;28;20466;-64
2021/04/02 09:28:08;;;;;;;6.97;5.60;;;10.80;88.70;;;;;;5068353;28;20413;-64
2021/04/02 09:30:36;;;;;;;5.80;5.20;;;10.20;90.60;;;;;;5069966;28;20429;-64
2021/04/02 09:33:04;;;;;;;9.60;6.60;;;10.20;91.10;;;;;;5072647;28;20401;-65
2021/04/02 09:35:33;;;;;;;8.93;6.33;;;10.10;91.30;;;;;;5055287;28;20437;-65
2021/04/02 09:38:04;;;;;;;13.43;9.97;;;10.00;91.40;;;;;;5074271;28;20431;-64
2021/04/02 09:40:34;;;;;;;7.37;5.50;;;10.40;91.90;;;;;;5074556;28;20435;-65
2021/04/02 09:43:04;;;;;;;6.70;6.03;;;10.30;91.50;;;;;;5073170;28;20439;-63
2021/04/02 09:45:34;;;;;;;6.90;5.87;;;10.50;91.50;;;;;;5056866;28;20442;-63
2021/04/02 09:48:17;;;;;;;5.40;4.67;;;10.30;91.80;;;;;;5075395;28;20421;-63
2021/04/02 09:50:47;;;;;;;7.87;5.50;;;10.10;92.00;;;;;;5074151;28;20473;-64
2021/04/02 09:53:15;;;;;;;7.83;4.90;;;10.10;92.60;;;;;;5073993;28;20413;-64
2021/04/02 09:55:43;;;;;;;7.03;5.10;;;10.10;92.60;;;;;;5068987;28;20434;-62
2021/04/02 09:58:10;;;;;;;6.93;4.63;;;10.10;92.50;;;;;;5068707;28;20410;-63
2021/04/02 10:00:40;;;;;;;5.90;4.20;;;10.30;92.90;;;;;;5065018;28;20541;-64
2021/04/02 10:03:13;;;;;;;8.77;4.77;;;10.30;92.70;;;;;;5057712;28;20747;-63
2021/04/02 10:05:43;;;;;;;4.50;3.63;;;10.30;92.80;;;;;;5039053;28;20915;-63
2021/04/02 10:08:11;;;;;;;5.47;4.00;;;10.00;93.30;;;;;;5056879;28;20419;-64
2021/04/02 10:10:38;;;;;;;4.37;3.23;;;10.10;93.80;;;;;;5057583;28;20488;-64
2021/04/02 10:13:05;;;;;;;5.30;4.70;;;10.20;93.60;;;;;;5058809;28;20436;-65
2021/04/02 10:15:33;;;;;;;8.47;6.10;;;10.20;93.70;;;;;;5056561;28;20479;-63
2021/04/02 10:18:01;;;;;;;4.83;3.50;;;10.20;93.80;;;;;;5038407;28;20454;-64
2021/04/02 10:20:30;;;;;;;4.73;3.60;;;10.30;93.60;;;;;;5056793;28;20461;-63
2021/04/02 10:22:58;;;;;;;5.80;4.00;;;10.10;93.70;;;;;;5056560;28;20758;-63
2021/04/02 10:25:51;;;;;;;3.50;2.70;;;10.00;94.00;;;;;;5060400;28;20444;-62
2021/04/02 10:31:12;;;;;;;4.53;2.63;;;10.10;94.40;;;;;;5056238;28;20973;-64
2021/04/02 10:33:44;;;;;;;3.37;2.97;;;10.40;94.40;;;;;;5056909;28;20508;-64
2021/04/02 10:36:13;;;;;;;3.90;3.03;;;10.50;94.40;;;;;;5056884;28;20496;-63
2021/04/02 10:38:41;;;;;;;3.20;2.47;;;10.20;93.80;;;;;;5056970;28;20934;-63
2021/04/02 10:41:09;;;;;;;4.00;2.77;;;10.30;94.40;;;;;;5057081;28;20451;-64
2021/04/02 10:44:02;;;;;;;3.27;2.50;;;10.30;94.90;;;;;;5056326;28;20445;-63
2021/04/02 10:46:29;;;;;;;6.63;3.10;;;10.30;94.70;;;;;;5055145;28;20730;-64
2021/04/02 10:48:57;;;;;;;4.83;2.97;;;10.20;94.60;;;;;;5056632;28;20433;-64
2021/04/02 10:51:25;;;;;;;4.57;2.70;;;10.00;95.40;;;;;;5056668;28;20884;-64
2021/04/02 10:54:01;;;;;;;3.50;2.60;;;10.10;95.70;;;;;;5055830;28;20942;-64
2021/04/02 10:56:30;;;;;;;3.60;2.53;;;10.00;95.80;;;;;;5056467;28;20434;-63
2021/04/02 10:58:57;;;;;;;3.40;2.53;;;10.10;95.50;;;;;;5055847;28;20434;-63
2021/04/02 11:01:27;;;;;;;3.67;2.90;;;10.00;95.60;;;;;;5036379;28;20470;-64
2021/04/02 11:03:54;;;;;;;3.20;2.50;;;10.30;95.60;;;;;;5055377;28;20409;-64
2021/04/02 11:06:21;;;;;;;7.83;2.87;;;10.20;95.50;;;;;;5055530;28;20423;-63
2021/04/02 11:08:49;;;;;;;3.20;2.73;;;10.00;95.70;;;;;;5055198;28;20891;-66
2021/04/02 11:11:17;;;;;;;3.87;2.50;;;10.30;95.70;;;;;;5055399;28;20492;-64
2021/04/02 11:13:44;;;;;;;3.00;2.40;;;9.70;96.60;;;;;;5055086;28;20440;-64
2021/04/02 11:16:12;;;;;;;3.80;2.53;;;9.50;97.20;;;;;;5054557;28;20531;-65
2021/04/02 11:18:41;;;;;;;3.50;1.97;;;9.80;97.00;;;;;;5055556;28;20451;-64
2021/04/02 11:21:08;;;;;;;5.17;2.20;;;9.80;96.70;;;;;;5054901;28;20482;-64
2021/04/02 11:23:36;;;;;;;2.83;2.37;;;9.90;96.80;;;;;;5056140;28;20413;-64
2021/04/02 11:26:07;;;;;;;2.57;2.00;;;10.00;96.00;;;;;;5057391;28;20548;-64
2021/04/02 11:28:34;;;;;;;3.83;2.43;;;9.90;96.10;;;;;;5038843;28;20873;-66
2021/04/02 11:31:03;;;;;;;2.83;2.50;;;10.10;95.90;;;;;;5055506;28;20545;-64
2021/04/02 11:33:30;;;;;;;3.93;2.37;;;10.20;95.50;;;;;;5056453;28;20413;-64
2021/04/02 11:35:58;;;;;;;2.07;1.87;;;10.50;95.50;;;;;;5056529;28;20442;-64
2021/04/02 11:38:26;;;;;;;3.00;2.03;;;10.40;94.80;;;;;;5057641;28;20752;-63
2021/04/02 11:40:54;;;;;;;4.80;3.37;;;10.30;95.20;;;;;;5058288;28;20535;-64
2021/04/02 11:43:22;;;;;;;2.80;2.10;;;10.10;95.20;;;;;;5056538;28;20438;-64
2021/04/02 11:45:52;;;;;;;4.23;2.73;;;10.30;95.10;;;;;;5054765;28;20466;-65
2021/04/02 11:48:19;;;;;;;2.83;2.30;;;10.20;95.20;;;;;;5056295;28;20448;-63
2021/04/02 11:50:46;;;;;;;4.97;1.90;;;10.50;95.70;;;;;;5056607;28;20848;-63
2021/04/02 11:53:16;;;;;;;2.50;1.90;;;10.40;95.20;;;;;;5055564;28;20492;-64
2021/04/02 11:55:44;;;;;;;2.70;1.97;;;10.40;95.50;;;;;;5038750;28;20431;-64
2021/04/02 11:58:13;;;;;;;2.13;1.83;;;10.40;95.30;;;;;;5038837;28;20416;-64
2021/04/02 12:00:41;;;;;;;3.40;2.23;;;10.40;95.30;;;;;;5032675;28;20558;-64
2021/04/02 12:03:09;;;;;;;2.30;2.03;;;10.80;95.00;;;;;;5036476;28;20445;-64
2021/04/02 12:05:36;;;;;;;2.77;2.20;;;10.60;95.00;;;;;;5035640;28;20438;-63
2021/04/02 12:08:04;;;;;;;2.60;1.90;;;10.60;94.80;;;;;;5035326;28;20405;-64
2021/04/02 12:10:32;;;;;;;2.37;2.00;;;10.70;94.80;;;;;;5035308;28;20470;-65
2021/04/02 12:12:59;;;;;;;3.03;1.90;;;10.80;94.60;;;;;;5036880;28;20450;-65
2021/04/02 12:15:27;;;;;;;2.43;1.80;;;10.90;94.10;;;;;;5046232;28;20507;-64
2021/04/02 12:17:55;;;;;;;2.60;2.10;;;11.10;94.00;;;;;;5044277;28;20435;-64
2021/04/02 12:20:23;;;;;;;2.73;1.97;;;11.60;93.70;;;;;;5045557;28;20510;-63
2021/04/02 12:22:51;;;;;;;2.93;2.47;;;11.40;93.20;;;;;;5065853;28;20438;-64
2021/04/02 12:25:19;;;;;;;1.70;1.47;;;11.20;93.50;;;;;;5065307;28;20434;-64
2021/04/02 12:27:47;;;;;;;4.23;2.23;;;11.60;92.70;;;;;;5064296;28;20422;-64
2021/04/02 12:30:16;;;;;;;2.97;1.73;;;11.50;92.70;;;;;;5058896;28;20448;-64
2021/04/02 12:32:44;;;;;;;2.20;1.70;;;11.10;92.90;;;;;;5058754;28;20529;-64
2021/04/02 12:35:13;;;;;;;2.40;1.77;;;11.10;93.30;;;;;;5063818;28;20430;-63
2021/04/02 12:37:41;;;;;;;2.90;2.20;;;11.10;93.40;;;;;;5061366;28;20505;-64
2021/04/02 12:40:11;;;;;;;1.93;1.80;;;11.00;93.90;;;;;;5041706;28;20516;-64
2021/04/02 12:42:39;;;;;;;2.40;2.17;;;10.90;93.80;;;;;;5057680;28;20434;-63
2021/04/02 12:45:08;;;;;;;1.87;1.77;;;10.80;94.20;;;;;;5058182;28;20445;-64
2021/04/02 12:47:36;;;;;;;5.83;2.23;;;11.00;94.30;;;;;;5058614;28;20539;-64
2021/04/02 12:50:08;;;;;;;4.60;2.17;;;11.10;94.10;;;;;;5059193;28;20586;-62
2021/04/02 12:52:37;;;;;;;2.20;1.83;;;11.50;93.50;;;;;;5058789;28;20443;-63
2021/04/02 12:55:05;;;;;;;4.37;2.37;;;11.40;92.70;;;;;;5040613;28;20440;-63
2021/04/02 12:57:34;;;;;;;2.60;2.10;;;11.80;92.40;;;;;;5058930;28;20427;-63
2021/04/02 13:00:02;;;;;;;2.80;1.77;;;11.70;91.50;;;;;;5059049;28;20468;-63
2021/04/02 13:02:35;;;;;;;2.83;2.40;;;12.20;91.50;;;;;;5038568;28;20484;-63
2021/04/02 13:05:02;;;;;;;2.77;2.30;;;12.50;90.80;;;;;;5044313;28;20444;-63
2021/04/02 13:07:30;;;;;;;3.47;2.60;;;12.20;91.20;;;;;;5032346;28;20452;-64
2021/04/02 13:09:59;;;;;;;2.33;1.93;;;11.90;91.20;;;;;;5039084;28;20433;-64
2021/04/02 13:12:26;;;;;;;2.93;2.50;;;12.10;91.40;;;;;;5037949;28;20771;-63
2021/04/02 13:14:54;;;;;;;3.63;2.70;;;12.50;91.00;;;;;;5038085;28;20434;-64
2021/04/02 13:17:22;;;;;;;4.43;2.47;;;12.70;88.80;;;;;;5056303;28;20466;-64